Herron, Michigan
Current Conditions -  °F | °C
As of 3:02 PM on Thursday 29 Jan 2015 (Local Time) from KAPN Reporting Station
Overcast Overcast  
Wind Chill: 21°   Ceiling: 1500
Heat Index: 29°   Visibility: 9mi
Dew Point: 24°   Wind: 8mph
Humidity: 82%   Direction: 300°WNW
Pressure: 29.74"   Gusts: NA
Location:  45.02°N, 83.65°W
Report Text: KAPN 292002Z AUTO 30007KT 9SM OVC015 M02/M04 A2974 RMK AO2 T10171044
Loading
Personal Weather Stations






























Interactive Weather Map New forecast layout! Learn more

10-Day Weather Forecast

Advertisements
Track Severe Weather on mobile